메인 페이지
METAR-TAF:

METAR-TAF

공항 :

애틀랜타, 조지아, 미국

위도: 33-46-39N, 경도: 084-31-28W, 고도: 256m

현재 날씨관측

예보는 22분 전, 00:53시(UTC)에 발표되었습니다.
남서8kt
온도 26°C
습도 84%
기압 1009 hPa
시정: 16.1km
맑음

METAR: KFTY 220053Z 22008KT 10SM CLR 26/23 A2980 RMK AO2 LTG DSNT NW-NE SLP083 T02610228

시각: 21:15 (01:15 UTC)

예보

예보는 1 시간 30분 전, 23:45시(UTC)에 발표되었습니다.
예보 대상 시간: 22일 00시부터 22일 24시까지 (UTC)
서남서7kt
시정: 10km
고도 4500ft 상공 구름 보통
시계 내 소나기
22일 0600시부터 (UTC)
여러 방향의 바람 3kt
시정: 10km
고도 4000ft 상공 구름 조금
22일 0900시부터 (UTC)
여러 방향의 바람 3kt
시정: 10km
고도 25000ft 상공 구름 조금
22일 1500시부터 (UTC)
서북서9kt
시정: 10km
고도 3500ft 상공 구름 보통
시계 내 소나기
22일 1800시부터 (UTC)
8kt, 순간 최대 풍속 18kt
시정: 10km
고도 5000ft 상공 구름 많음
확률 30%
22일 18시부터 22일 24시까지 (UTC)
시정: 6.4km
고도 3500ft 상공 흐림, 적란운.
뇌우, 비

TAF: KFTY 212345Z 2200/2224 24007KT P6SM VCSH SCT045 FM220600 VRB03KT P6SM FEW040 FM220900 VRB03KT P6SM FEW250 FM221500 29009KT P6SM VCSH SCT035 FM221800 28008G18KT P6SM BKN050 PROB30 2218/2224 4SM TSRA OVC035CB

4,000개 이상의 공항 관측 자료 및 예보 (METAR 및 TAF 보고).

지도상에서 검색 가능한 기상관측소가 노란 점과 빨간 점으로 표시되어 있습니다.

기상관측소 명을 보려면 표시 위로 마우스를 이동하세요.

날씨 관측과 예보를 보려면 클릭하세요.

지도 변경 : 확대하려면 엑스 표시가 있는 녹색 버튼, 축소하려면 빼기 표시가 있는 녹색 버튼, 다음 페이지의 지도를 보려면 녹색 화살표를 클릭하세요.


METAR-TAF: